sensor_id;sensor_type;location;lat;lon;timestamp;P1;durP1;ratioP1;P2;durP2;ratioP2
75689;SDS011;64303;53.118;9.044;2023-12-07T00:01:59;30.52;;;20.70;;
75689;SDS011;64303;53.118;9.044;2023-12-07T00:04:26;33.08;;;19.98;;
75689;SDS011;64303;53.118;9.044;2023-12-07T00:06:52;30.92;;;19.70;;
75689;SDS011;64303;53.118;9.044;2023-12-07T00:09:20;35.20;;;21.35;;
75689;SDS011;64303;53.118;9.044;2023-12-07T00:11:47;28.35;;;19.42;;
75689;SDS011;64303;53.118;9.044;2023-12-07T00:14:14;31.73;;;21.77;;
75689;SDS011;64303;53.118;9.044;2023-12-07T00:16:40;30.42;;;19.40;;
75689;SDS011;64303;53.118;9.044;2023-12-07T00:19:08;31.80;;;23.65;;
75689;SDS011;64303;53.118;9.044;2023-12-07T00:21:34;26.25;;;17.75;;
75689;SDS011;64303;53.118;9.044;2023-12-07T00:24:01;33.40;;;20.00;;
75689;SDS011;64303;53.118;9.044;2023-12-07T00:26:30;28.35;;;17.10;;
75689;SDS011;64303;53.118;9.044;2023-12-07T00:28:57;32.97;;;18.88;;
75689;SDS011;64303;53.118;9.044;2023-12-07T00:31:23;32.25;;;20.58;;
75689;SDS011;64303;53.118;9.044;2023-12-07T00:33:51;27.20;;;15.55;;
75689;SDS011;64303;53.118;9.044;2023-12-07T00:36:18;28.70;;;18.35;;
75689;SDS011;64303;53.118;9.044;2023-12-07T00:38:45;33.10;;;20.20;;
75689;SDS011;64303;53.118;9.044;2023-12-07T00:41:12;27.10;;;19.80;;
75689;SDS011;64303;53.118;9.044;2023-12-07T00:43:40;30.20;;;20.13;;
75689;SDS011;64303;53.118;9.044;2023-12-07T00:46:06;27.00;;;16.55;;
75689;SDS011;64303;53.118;9.044;2023-12-07T00:48:33;31.25;;;18.98;;
75689;SDS011;64303;53.118;9.044;2023-12-07T00:51:00;26.75;;;18.80;;
75689;SDS011;64303;53.118;9.044;2023-12-07T00:53:27;28.88;;;18.23;;
75689;SDS011;64303;53.118;9.044;2023-12-07T00:55:54;27.40;;;19.30;;
75689;SDS011;64303;53.118;9.044;2023-12-07T00:58:20;27.83;;;19.33;;
75689;SDS011;64303;53.118;9.044;2023-12-07T01:00:49;23.55;;;17.65;;
75689;SDS011;64303;53.118;9.044;2023-12-07T01:03:16;28.48;;;17.95;;
75689;SDS011;64303;53.118;9.044;2023-12-07T01:05:43;27.50;;;18.90;;
75689;SDS011;64303;53.118;9.044;2023-12-07T01:08:09;29.52;;;22.33;;
75689;SDS011;64303;53.118;9.044;2023-12-07T01:10:36;28.10;;;19.77;;
75689;SDS011;64303;53.118;9.044;2023-12-07T01:13:03;26.63;;;17.75;;
75689;SDS011;64303;53.118;9.044;2023-12-07T01:15:30;26.40;;;18.40;;
75689;SDS011;64303;53.118;9.044;2023-12-07T01:17:59;25.33;;;17.50;;
75689;SDS011;64303;53.118;9.044;2023-12-07T01:20:25;28.52;;;19.17;;
75689;SDS011;64303;53.118;9.044;2023-12-07T01:22:53;24.20;;;17.33;;
75689;SDS011;64303;53.118;9.044;2023-12-07T01:25:19;30.48;;;19.45;;
75689;SDS011;64303;53.118;9.044;2023-12-07T01:27:47;27.15;;;19.17;;
75689;SDS011;64303;53.118;9.044;2023-12-07T01:30:14;28.95;;;17.60;;
75689;SDS011;64303;53.118;9.044;2023-12-07T01:32:41;28.50;;;17.48;;
75689;SDS011;64303;53.118;9.044;2023-12-07T01:35:09;24.67;;;19.17;;
75689;SDS011;64303;53.118;9.044;2023-12-07T01:37:36;26.13;;;18.00;;
75689;SDS011;64303;53.118;9.044;2023-12-07T01:40:03;26.90;;;17.85;;
75689;SDS011;64303;53.118;9.044;2023-12-07T01:42:35;25.98;;;19.33;;
75689;SDS011;64303;53.118;9.044;2023-12-07T01:45:03;28.85;;;20.25;;
75689;SDS011;64303;53.118;9.044;2023-12-07T01:47:30;27.02;;;17.48;;
75689;SDS011;64303;53.118;9.044;2023-12-07T01:49:58;26.13;;;17.98;;
75689;SDS011;64303;53.118;9.044;2023-12-07T01:52:26;27.10;;;18.15;;
75689;SDS011;64303;53.118;9.044;2023-12-07T01:54:54;25.83;;;18.52;;
75689;SDS011;64303;53.118;9.044;2023-12-07T01:57:21;29.85;;;18.27;;
75689;SDS011;64303;53.118;9.044;2023-12-07T01:59:48;29.13;;;19.25;;
75689;SDS011;64303;53.118;9.044;2023-12-07T02:02:15;24.83;;;18.08;;
75689;SDS011;64303;53.118;9.044;2023-12-07T02:04:42;26.50;;;17.77;;
75689;SDS011;64303;53.118;9.044;2023-12-07T02:07:09;25.90;;;17.70;;
75689;SDS011;64303;53.118;9.044;2023-12-07T02:09:37;27.58;;;19.10;;
75689;SDS011;64303;53.118;9.044;2023-12-07T02:12:04;28.83;;;17.50;;
75689;SDS011;64303;53.118;9.044;2023-12-07T02:14:31;27.52;;;17.13;;
75689;SDS011;64303;53.118;9.044;2023-12-07T02:17:01;28.88;;;19.00;;
75689;SDS011;64303;53.118;9.044;2023-12-07T02:19:42;23.05;;;16.77;;
75689;SDS011;64303;53.118;9.044;2023-12-07T02:22:17;26.25;;;18.90;;
75689;SDS011;64303;53.118;9.044;2023-12-07T02:24:59;28.00;;;17.80;;
75689;SDS011;64303;53.118;9.044;2023-12-07T02:27:36;24.23;;;19.52;;
75689;SDS011;64303;53.118;9.044;2023-12-07T02:30:05;27.13;;;17.02;;
75689;SDS011;64303;53.118;9.044;2023-12-07T02:32:32;31.85;;;19.55;;
75689;SDS011;64303;53.118;9.044;2023-12-07T02:35:00;22.98;;;15.90;;
75689;SDS011;64303;53.118;9.044;2023-12-07T02:37:27;25.48;;;19.88;;
75689;SDS011;64303;53.118;9.044;2023-12-07T02:39:55;25.67;;;17.67;;
75689;SDS011;64303;53.118;9.044;2023-12-07T02:42:22;28.52;;;16.90;;
75689;SDS011;64303;53.118;9.044;2023-12-07T02:44:51;24.67;;;15.95;;
75689;SDS011;64303;53.118;9.044;2023-12-07T02:47:19;22.98;;;16.75;;
75689;SDS011;64303;53.118;9.044;2023-12-07T02:49:45;27.48;;;20.20;;
75689;SDS011;64303;53.118;9.044;2023-12-07T02:52:12;25.58;;;17.25;;
75689;SDS011;64303;53.118;9.044;2023-12-07T02:54:39;26.67;;;16.85;;
75689;SDS011;64303;53.118;9.044;2023-12-07T02:57:06;27.45;;;18.27;;
75689;SDS011;64303;53.118;9.044;2023-12-07T02:59:32;27.83;;;18.27;;
75689;SDS011;64303;53.118;9.044;2023-12-07T03:02:00;24.75;;;16.55;;
75689;SDS011;64303;53.118;9.044;2023-12-07T03:04:27;28.73;;;16.67;;
75689;SDS011;64303;53.118;9.044;2023-12-07T03:06:54;28.85;;;18.40;;
75689;SDS011;64303;53.118;9.044;2023-12-07T03:09:20;27.58;;;18.17;;
75689;SDS011;64303;53.118;9.044;2023-12-07T03:11:47;23.00;;;17.65;;
75689;SDS011;64303;53.118;9.044;2023-12-07T03:14:14;26.63;;;16.90;;
75689;SDS011;64303;53.118;9.044;2023-12-07T03:16:41;24.38;;;17.52;;
75689;SDS011;64303;53.118;9.044;2023-12-07T03:19:09;25.77;;;15.20;;
75689;SDS011;64303;53.118;9.044;2023-12-07T03:21:38;25.70;;;19.33;;
75689;SDS011;64303;53.118;9.044;2023-12-07T03:24:06;26.60;;;15.43;;
75689;SDS011;64303;53.118;9.044;2023-12-07T03:26:33;24.60;;;17.98;;
75689;SDS011;64303;53.118;9.044;2023-12-07T03:28:59;27.02;;;17.02;;
75689;SDS011;64303;53.118;9.044;2023-12-07T03:31:27;25.38;;;15.13;;
75689;SDS011;64303;53.118;9.044;2023-12-07T03:33:54;23.17;;;16.35;;
75689;SDS011;64303;53.118;9.044;2023-12-07T03:36:22;24.10;;;19.10;;
75689;SDS011;64303;53.118;9.044;2023-12-07T03:38:49;25.98;;;17.63;;
75689;SDS011;64303;53.118;9.044;2023-12-07T03:41:16;23.88;;;15.52;;
75689;SDS011;64303;53.118;9.044;2023-12-07T03:43:42;25.33;;;18.33;;
75689;SDS011;64303;53.118;9.044;2023-12-07T03:46:09;24.48;;;17.70;;
75689;SDS011;64303;53.118;9.044;2023-12-07T03:48:36;26.38;;;17.23;;
75689;SDS011;64303;53.118;9.044;2023-12-07T03:51:03;28.38;;;16.95;;
75689;SDS011;64303;53.118;9.044;2023-12-07T03:53:32;21.77;;;16.88;;
75689;SDS011;64303;53.118;9.044;2023-12-07T03:55:59;26.95;;;16.42;;
75689;SDS011;64303;53.118;9.044;2023-12-07T03:58:26;20.58;;;14.93;;
75689;SDS011;64303;53.118;9.044;2023-12-07T04:00:53;25.30;;;16.45;;
75689;SDS011;64303;53.118;9.044;2023-12-07T04:03:19;21.70;;;13.90;;
75689;SDS011;64303;53.118;9.044;2023-12-07T04:05:46;25.08;;;17.33;;
75689;SDS011;64303;53.118;9.044;2023-12-07T04:08:13;27.42;;;16.48;;
75689;SDS011;64303;53.118;9.044;2023-12-07T04:10:41;24.77;;;17.10;;
75689;SDS011;64303;53.118;9.044;2023-12-07T04:13:08;28.30;;;15.85;;
75689;SDS011;64303;53.118;9.044;2023-12-07T04:15:34;25.85;;;16.77;;
75689;SDS011;64303;53.118;9.044;2023-12-07T04:18:01;25.13;;;15.85;;
75689;SDS011;64303;53.118;9.044;2023-12-07T04:20:28;20.88;;;14.68;;
75689;SDS011;64303;53.118;9.044;2023-12-07T04:22:55;25.88;;;18.38;;
75689;SDS011;64303;53.118;9.044;2023-12-07T04:25:21;26.65;;;15.63;;
75689;SDS011;64303;53.118;9.044;2023-12-07T04:27:49;23.80;;;14.63;;
75689;SDS011;64303;53.118;9.044;2023-12-07T04:30:16;25.65;;;15.82;;
75689;SDS011;64303;53.118;9.044;2023-12-07T04:32:43;22.48;;;14.95;;
75689;SDS011;64303;53.118;9.044;2023-12-07T04:35:10;22.58;;;15.80;;
75689;SDS011;64303;53.118;9.044;2023-12-07T04:37:36;22.98;;;15.13;;
75689;SDS011;64303;53.118;9.044;2023-12-07T04:40:04;23.52;;;15.68;;
75689;SDS011;64303;53.118;9.044;2023-12-07T04:42:32;21.45;;;15.55;;
75689;SDS011;64303;53.118;9.044;2023-12-07T04:45:00;21.73;;;17.95;;
75689;SDS011;64303;53.118;9.044;2023-12-07T04:47:27;23.88;;;17.30;;
75689;SDS011;64303;53.118;9.044;2023-12-07T04:49:54;22.25;;;17.58;;
75689;SDS011;64303;53.118;9.044;2023-12-07T04:52:20;19.65;;;13.23;;
75689;SDS011;64303;53.118;9.044;2023-12-07T04:54:47;22.08;;;17.77;;
75689;SDS011;64303;53.118;9.044;2023-12-07T04:57:14;23.55;;;15.20;;
75689;SDS011;64303;53.118;9.044;2023-12-07T04:59:42;23.35;;;17.05;;
75689;SDS011;64303;53.118;9.044;2023-12-07T05:02:13;23.60;;;15.15;;
75689;SDS011;64303;53.118;9.044;2023-12-07T05:04:40;19.35;;;13.90;;
75689;SDS011;64303;53.118;9.044;2023-12-07T05:07:06;22.17;;;16.40;;
75689;SDS011;64303;53.118;9.044;2023-12-07T05:09:33;20.63;;;15.68;;
75689;SDS011;64303;53.118;9.044;2023-12-07T05:12:00;23.30;;;18.10;;
75689;SDS011;64303;53.118;9.044;2023-12-07T05:14:27;22.40;;;16.85;;
75689;SDS011;64303;53.118;9.044;2023-12-07T05:16:53;20.38;;;16.55;;
75689;SDS011;64303;53.118;9.044;2023-12-07T05:19:22;22.67;;;14.88;;
75689;SDS011;64303;53.118;9.044;2023-12-07T05:21:49;21.30;;;18.27;;
75689;SDS011;64303;53.118;9.044;2023-12-07T05:24:16;20.38;;;15.32;;
75689;SDS011;64303;53.118;9.044;2023-12-07T05:26:43;20.17;;;16.63;;
75689;SDS011;64303;53.118;9.044;2023-12-07T05:29:11;21.20;;;17.13;;
75689;SDS011;64303;53.118;9.044;2023-12-07T05:31:38;24.48;;;14.00;;
75689;SDS011;64303;53.118;9.044;2023-12-07T05:34:06;28.92;;;17.83;;
75689;SDS011;64303;53.118;9.044;2023-12-07T05:36:34;13.68;;;10.80;;
75689;SDS011;64303;53.118;9.044;2023-12-07T05:41:28;14.25;;;12.65;;
75689;SDS011;64303;53.118;9.044;2023-12-07T05:43:55;14.90;;;13.38;;
75689;SDS011;64303;53.118;9.044;2023-12-07T05:46:21;13.20;;;11.13;;
75689;SDS011;64303;53.118;9.044;2023-12-07T05:48:48;19.17;;;13.43;;
75689;SDS011;64303;53.118;9.044;2023-12-07T05:51:15;16.30;;;11.98;;
75689;SDS011;64303;53.118;9.044;2023-12-07T05:53:44;17.35;;;11.25;;
75689;SDS011;64303;53.118;9.044;2023-12-07T05:56:11;17.85;;;14.88;;
75689;SDS011;64303;53.118;9.044;2023-12-07T05:58:37;19.10;;;12.25;;
75689;SDS011;64303;53.118;9.044;2023-12-07T06:01:04;19.02;;;14.27;;
75689;SDS011;64303;53.118;9.044;2023-12-07T06:03:33;22.10;;;15.00;;
75689;SDS011;64303;53.118;9.044;2023-12-07T06:06:00;17.02;;;13.63;;
75689;SDS011;64303;53.118;9.044;2023-12-07T06:08:28;19.08;;;14.02;;
75689;SDS011;64303;53.118;9.044;2023-12-07T06:10:56;19.45;;;12.73;;
75689;SDS011;64303;53.118;9.044;2023-12-07T06:13:22;19.10;;;12.88;;
75689;SDS011;64303;53.118;9.044;2023-12-07T06:15:49;17.77;;;12.52;;
75689;SDS011;64303;53.118;9.044;2023-12-07T06:18:16;19.27;;;14.05;;
75689;SDS011;64303;53.118;9.044;2023-12-07T06:20:42;19.52;;;13.88;;
75689;SDS011;64303;53.118;9.044;2023-12-07T06:23:09;26.77;;;15.88;;
75689;SDS011;64303;53.118;9.044;2023-12-07T06:25:38;20.23;;;15.70;;
75689;SDS011;64303;53.118;9.044;2023-12-07T06:28:06;27.70;;;14.60;;
75689;SDS011;64303;53.118;9.044;2023-12-07T06:30:33;21.20;;;16.10;;
75689;SDS011;64303;53.118;9.044;2023-12-07T06:33:00;20.98;;;15.93;;
75689;SDS011;64303;53.118;9.044;2023-12-07T06:35:26;27.10;;;16.60;;
75689;SDS011;64303;53.118;9.044;2023-12-07T06:37:54;22.10;;;14.63;;
75689;SDS011;64303;53.118;9.044;2023-12-07T06:40:20;24.77;;;15.02;;
75689;SDS011;64303;53.118;9.044;2023-12-07T06:42:47;21.27;;;15.25;;
75689;SDS011;64303;53.118;9.044;2023-12-07T06:45:15;21.42;;;15.02;;
75689;SDS011;64303;53.118;9.044;2023-12-07T06:47:42;22.98;;;17.08;;
75689;SDS011;64303;53.118;9.044;2023-12-07T06:50:09;20.80;;;13.95;;
75689;SDS011;64303;53.118;9.044;2023-12-07T06:52:36;24.10;;;16.55;;
75689;SDS011;64303;53.118;9.044;2023-12-07T06:55:03;20.73;;;15.13;;
75689;SDS011;64303;53.118;9.044;2023-12-07T06:57:30;21.48;;;13.30;;
75689;SDS011;64303;53.118;9.044;2023-12-07T06:59:57;20.45;;;13.90;;
75689;SDS011;64303;53.118;9.044;2023-12-07T07:02:25;23.13;;;15.02;;
75689;SDS011;64303;53.118;9.044;2023-12-07T07:04:52;23.60;;;17.98;;
75689;SDS011;64303;53.118;9.044;2023-12-07T07:07:19;23.65;;;15.98;;
75689;SDS011;64303;53.118;9.044;2023-12-07T07:09:46;18.13;;;14.38;;
75689;SDS011;64303;53.118;9.044;2023-12-07T07:12:13;21.50;;;14.93;;
75689;SDS011;64303;53.118;9.044;2023-12-07T07:14:39;20.30;;;13.00;;
75689;SDS011;64303;53.118;9.044;2023-12-07T07:17:06;19.90;;;14.18;;
75689;SDS011;64303;53.118;9.044;2023-12-07T07:19:34;20.27;;;13.32;;
75689;SDS011;64303;53.118;9.044;2023-12-07T07:22:01;19.17;;;13.45;;
75689;SDS011;64303;53.118;9.044;2023-12-07T07:24:27;19.63;;;12.40;;
75689;SDS011;64303;53.118;9.044;2023-12-07T07:26:54;21.08;;;14.65;;
75689;SDS011;64303;53.118;9.044;2023-12-07T07:29:21;21.00;;;16.73;;
75689;SDS011;64303;53.118;9.044;2023-12-07T07:31:48;23.15;;;15.60;;
75689;SDS011;64303;53.118;9.044;2023-12-07T07:34:14;26.13;;;17.60;;
75689;SDS011;64303;53.118;9.044;2023-12-07T07:36:43;23.45;;;15.43;;
75689;SDS011;64303;53.118;9.044;2023-12-07T07:39:09;25.30;;;16.15;;
75689;SDS011;64303;53.118;9.044;2023-12-07T07:41:39;21.13;;;16.17;;
75689;SDS011;64303;53.118;9.044;2023-12-07T07:44:06;22.50;;;16.25;;
75689;SDS011;64303;53.118;9.044;2023-12-07T07:46:32;22.77;;;15.70;;
75689;SDS011;64303;53.118;9.044;2023-12-07T07:49:00;19.90;;;14.10;;
75689;SDS011;64303;53.118;9.044;2023-12-07T07:51:29;21.52;;;14.63;;
75689;SDS011;64303;53.118;9.044;2023-12-07T07:53:58;23.88;;;15.13;;
75689;SDS011;64303;53.118;9.044;2023-12-07T07:56:25;22.95;;;17.40;;
75689;SDS011;64303;53.118;9.044;2023-12-07T07:58:52;21.75;;;16.15;;
75689;SDS011;64303;53.118;9.044;2023-12-07T08:01:18;23.20;;;17.00;;
75689;SDS011;64303;53.118;9.044;2023-12-07T08:03:45;22.40;;;15.05;;
75689;SDS011;64303;53.118;9.044;2023-12-07T08:06:12;24.85;;;16.85;;
75689;SDS011;64303;53.118;9.044;2023-12-07T08:08:39;21.42;;;16.27;;
75689;SDS011;64303;53.118;9.044;2023-12-07T08:11:07;22.13;;;15.48;;
75689;SDS011;64303;53.118;9.044;2023-12-07T08:13:33;22.63;;;15.45;;
75689;SDS011;64303;53.118;9.044;2023-12-07T08:16:00;24.70;;;17.15;;
75689;SDS011;64303;53.118;9.044;2023-12-07T08:18:27;23.23;;;15.60;;
75689;SDS011;64303;53.118;9.044;2023-12-07T08:20:54;23.75;;;16.38;;
75689;SDS011;64303;53.118;9.044;2023-12-07T08:23:20;21.05;;;17.20;;
75689;SDS011;64303;53.118;9.044;2023-12-07T08:25:47;22.35;;;16.08;;
75689;SDS011;64303;53.118;9.044;2023-12-07T08:28:15;27.63;;;19.27;;
75689;SDS011;64303;53.118;9.044;2023-12-07T08:30:43;28.88;;;21.35;;
75689;SDS011;64303;53.118;9.044;2023-12-07T08:33:09;30.73;;;19.38;;
75689;SDS011;64303;53.118;9.044;2023-12-07T08:35:36;29.85;;;17.40;;
75689;SDS011;64303;53.118;9.044;2023-12-07T08:38:03;30.13;;;15.00;;
75689;SDS011;64303;53.118;9.044;2023-12-07T08:40:31;25.80;;;15.55;;
75689;SDS011;64303;53.118;9.044;2023-12-07T08:42:58;44.15;;;25.83;;
75689;SDS011;64303;53.118;9.044;2023-12-07T08:45:26;27.60;;;18.27;;
75689;SDS011;64303;53.118;9.044;2023-12-07T08:47:52;23.98;;;15.77;;
75689;SDS011;64303;53.118;9.044;2023-12-07T08:50:19;20.48;;;16.10;;
75689;SDS011;64303;53.118;9.044;2023-12-07T08:52:46;23.80;;;15.48;;
75689;SDS011;64303;53.118;9.044;2023-12-07T08:55:13;21.65;;;15.48;;
75689;SDS011;64303;53.118;9.044;2023-12-07T08:57:42;20.65;;;15.60;;
75689;SDS011;64303;53.118;9.044;2023-12-07T09:00:09;24.80;;;16.17;;
75689;SDS011;64303;53.118;9.044;2023-12-07T09:02:39;24.25;;;17.83;;
75689;SDS011;64303;53.118;9.044;2023-12-07T09:05:07;25.05;;;17.77;;
75689;SDS011;64303;53.118;9.044;2023-12-07T09:07:35;20.40;;;15.35;;
75689;SDS011;64303;53.118;9.044;2023-12-07T09:10:02;22.48;;;15.82;;
75689;SDS011;64303;53.118;9.044;2023-12-07T09:12:29;25.92;;;16.02;;
75689;SDS011;64303;53.118;9.044;2023-12-07T09:14:56;24.88;;;16.80;;
75689;SDS011;64303;53.118;9.044;2023-12-07T09:17:23;24.85;;;15.73;;
75689;SDS011;64303;53.118;9.044;2023-12-07T09:19:51;23.00;;;15.98;;
75689;SDS011;64303;53.118;9.044;2023-12-07T09:24:45;23.23;;;13.80;;
75689;SDS011;64303;53.118;9.044;2023-12-07T09:27:12;22.40;;;15.57;;
75689;SDS011;64303;53.118;9.044;2023-12-07T09:29:40;23.17;;;14.95;;
75689;SDS011;64303;53.118;9.044;2023-12-07T09:32:06;26.00;;;19.70;;
75689;SDS011;64303;53.118;9.044;2023-12-07T09:34:34;34.63;;;22.33;;
75689;SDS011;64303;53.118;9.044;2023-12-07T09:37:08;31.65;;;22.40;;
75689;SDS011;64303;53.118;9.044;2023-12-07T09:39:36;29.90;;;17.80;;
75689;SDS011;64303;53.118;9.044;2023-12-07T09:42:03;25.25;;;15.35;;
75689;SDS011;64303;53.118;9.044;2023-12-07T09:44:30;21.90;;;17.08;;
75689;SDS011;64303;53.118;9.044;2023-12-07T09:46:56;23.25;;;15.38;;
75689;SDS011;64303;53.118;9.044;2023-12-07T09:49:23;24.05;;;16.15;;
75689;SDS011;64303;53.118;9.044;2023-12-07T09:51:50;24.67;;;17.50;;
75689;SDS011;64303;53.118;9.044;2023-12-07T09:54:19;24.15;;;16.33;;
75689;SDS011;64303;53.118;9.044;2023-12-07T09:56:46;26.35;;;19.60;;
75689;SDS011;64303;53.118;9.044;2023-12-07T09:59:13;25.25;;;16.25;;
75689;SDS011;64303;53.118;9.044;2023-12-07T10:01:39;23.83;;;18.50;;
75689;SDS011;64303;53.118;9.044;2023-12-07T10:04:16;29.30;;;15.32;;
75689;SDS011;64303;53.118;9.044;2023-12-07T10:06:43;26.90;;;20.95;;
75689;SDS011;64303;53.118;9.044;2023-12-07T10:09:11;18.33;;;13.65;;
75689;SDS011;64303;53.118;9.044;2023-12-07T10:11:40;14.40;;;11.18;;
75689;SDS011;64303;53.118;9.044;2023-12-07T10:14:07;12.75;;;11.38;;
75689;SDS011;64303;53.118;9.044;2023-12-07T10:16:34;13.50;;;10.43;;
75689;SDS011;64303;53.118;9.044;2023-12-07T10:19:12;14.90;;;13.27;;
75689;SDS011;64303;53.118;9.044;2023-12-07T10:21:39;16.08;;;14.38;;
75689;SDS011;64303;53.118;9.044;2023-12-07T10:24:06;18.05;;;13.00;;
75689;SDS011;64303;53.118;9.044;2023-12-07T10:26:33;18.13;;;14.68;;
75689;SDS011;64303;53.118;9.044;2023-12-07T10:31:30;18.45;;;14.32;;
75689;SDS011;64303;53.118;9.044;2023-12-07T10:33:58;20.40;;;14.25;;
75689;SDS011;64303;53.118;9.044;2023-12-07T10:36:24;18.92;;;13.73;;
75689;SDS011;64303;53.118;9.044;2023-12-07T10:38:51;19.40;;;12.70;;
75689;SDS011;64303;53.118;9.044;2023-12-07T10:41:18;18.08;;;13.95;;
75689;SDS011;64303;53.118;9.044;2023-12-07T10:43:48;17.45;;;14.68;;
75689;SDS011;64303;53.118;9.044;2023-12-07T10:46:16;18.08;;;14.13;;
75689;SDS011;64303;53.118;9.044;2023-12-07T10:48:47;23.40;;;16.02;;
75689;SDS011;64303;53.118;9.044;2023-12-07T10:51:16;22.52;;;14.10;;
75689;SDS011;64303;53.118;9.044;2023-12-07T10:53:45;26.40;;;14.80;;
75689;SDS011;64303;53.118;9.044;2023-12-07T10:56:13;18.98;;;14.13;;
75689;SDS011;64303;53.118;9.044;2023-12-07T10:58:43;20.15;;;13.77;;
75689;SDS011;64303;53.118;9.044;2023-12-07T11:01:10;19.50;;;15.00;;
75689;SDS011;64303;53.118;9.044;2023-12-07T11:03:40;23.58;;;16.98;;
75689;SDS011;64303;53.118;9.044;2023-12-07T11:06:08;18.92;;;11.75;;
75689;SDS011;64303;53.118;9.044;2023-12-07T11:08:36;17.70;;;14.10;;
75689;SDS011;64303;53.118;9.044;2023-12-07T11:11:08;21.50;;;14.98;;
75689;SDS011;64303;53.118;9.044;2023-12-07T11:13:39;19.95;;;15.05;;
75689;SDS011;64303;53.118;9.044;2023-12-07T11:16:07;20.60;;;14.32;;
75689;SDS011;64303;53.118;9.044;2023-12-07T11:18:36;21.13;;;14.32;;
75689;SDS011;64303;53.118;9.044;2023-12-07T11:21:04;21.95;;;13.18;;
75689;SDS011;64303;53.118;9.044;2023-12-07T11:23:31;20.90;;;13.98;;
75689;SDS011;64303;53.118;9.044;2023-12-07T11:25:58;19.67;;;13.35;;
75689;SDS011;64303;53.118;9.044;2023-12-07T11:28:34;21.80;;;15.18;;
75689;SDS011;64303;53.118;9.044;2023-12-07T11:31:02;19.70;;;13.75;;
75689;SDS011;64303;53.118;9.044;2023-12-07T11:33:29;21.63;;;14.93;;
75689;SDS011;64303;53.118;9.044;2023-12-07T11:36:04;18.20;;;14.05;;
75689;SDS011;64303;53.118;9.044;2023-12-07T11:38:32;23.00;;;17.58;;
75689;SDS011;64303;53.118;9.044;2023-12-07T11:41:00;21.92;;;15.02;;
75689;SDS011;64303;53.118;9.044;2023-12-07T11:43:37;24.65;;;13.82;;
75689;SDS011;64303;53.118;9.044;2023-12-07T11:46:09;17.77;;;12.90;;
75689;SDS011;64303;53.118;9.044;2023-12-07T11:48:35;22.05;;;16.48;;
75689;SDS011;64303;53.118;9.044;2023-12-07T11:51:02;20.00;;;14.50;;
75689;SDS011;64303;53.118;9.044;2023-12-07T11:53:31;18.88;;;14.32;;
75689;SDS011;64303;53.118;9.044;2023-12-07T11:56:00;20.80;;;13.70;;
75689;SDS011;64303;53.118;9.044;2023-12-07T11:58:28;19.95;;;15.57;;
75689;SDS011;64303;53.118;9.044;2023-12-07T12:00:56;18.33;;;14.18;;
75689;SDS011;64303;53.118;9.044;2023-12-07T12:03:24;21.90;;;15.85;;
75689;SDS011;64303;53.118;9.044;2023-12-07T12:05:50;20.85;;;13.38;;
75689;SDS011;64303;53.118;9.044;2023-12-07T12:08:19;21.83;;;15.70;;
75689;SDS011;64303;53.118;9.044;2023-12-07T12:10:45;18.75;;;14.52;;
75689;SDS011;64303;53.118;9.044;2023-12-07T12:13:14;19.73;;;14.38;;
75689;SDS011;64303;53.118;9.044;2023-12-07T12:15:41;20.38;;;13.15;;
75689;SDS011;64303;53.118;9.044;2023-12-07T12:18:08;20.60;;;15.70;;
75689;SDS011;64303;53.118;9.044;2023-12-07T12:20:35;18.67;;;14.38;;
75689;SDS011;64303;53.118;9.044;2023-12-07T12:23:02;21.05;;;14.90;;
75689;SDS011;64303;53.118;9.044;2023-12-07T12:25:30;25.38;;;14.63;;
75689;SDS011;64303;53.118;9.044;2023-12-07T12:27:58;20.17;;;14.32;;
75689;SDS011;64303;53.118;9.044;2023-12-07T12:32:53;19.45;;;14.63;;
75689;SDS011;64303;53.118;9.044;2023-12-07T12:35:20;20.67;;;13.43;;
75689;SDS011;64303;53.118;9.044;2023-12-07T12:37:48;20.08;;;16.52;;
75689;SDS011;64303;53.118;9.044;2023-12-07T12:40:15;18.92;;;16.00;;
75689;SDS011;64303;53.118;9.044;2023-12-07T12:42:47;21.20;;;15.75;;
75689;SDS011;64303;53.118;9.044;2023-12-07T12:45:14;26.67;;;20.48;;
75689;SDS011;64303;53.118;9.044;2023-12-07T12:47:42;27.10;;;20.13;;
75689;SDS011;64303;53.118;9.044;2023-12-07T12:50:09;25.63;;;20.23;;
75689;SDS011;64303;53.118;9.044;2023-12-07T12:52:36;22.48;;;14.02;;
75689;SDS011;64303;53.118;9.044;2023-12-07T12:55:06;27.23;;;17.70;;
75689;SDS011;64303;53.118;9.044;2023-12-07T12:57:35;21.17;;;16.48;;
75689;SDS011;64303;53.118;9.044;2023-12-07T13:00:05;18.85;;;11.70;;
75689;SDS011;64303;53.118;9.044;2023-12-07T13:02:33;17.42;;;13.25;;
75689;SDS011;64303;53.118;9.044;2023-12-07T13:05:00;19.88;;;15.40;;
75689;SDS011;64303;53.118;9.044;2023-12-07T13:07:27;18.30;;;14.60;;
75689;SDS011;64303;53.118;9.044;2023-12-07T13:09:54;17.92;;;12.77;;
75689;SDS011;64303;53.118;9.044;2023-12-07T13:12:21;19.38;;;15.40;;
75689;SDS011;64303;53.118;9.044;2023-12-07T13:14:48;19.83;;;14.38;;
75689;SDS011;64303;53.118;9.044;2023-12-07T13:17:16;21.33;;;13.77;;
75689;SDS011;64303;53.118;9.044;2023-12-07T13:19:43;20.30;;;14.25;;
75689;SDS011;64303;53.118;9.044;2023-12-07T13:22:10;20.17;;;15.38;;
75689;SDS011;64303;53.118;9.044;2023-12-07T13:24:37;21.20;;;16.15;;
75689;SDS011;64303;53.118;9.044;2023-12-07T13:27:04;18.33;;;16.23;;
75689;SDS011;64303;53.118;9.044;2023-12-07T13:29:31;20.95;;;14.75;;
75689;SDS011;64303;53.118;9.044;2023-12-07T13:31:57;22.13;;;14.43;;
75689;SDS011;64303;53.118;9.044;2023-12-07T13:34:25;20.60;;;15.52;;
75689;SDS011;64303;53.118;9.044;2023-12-07T13:36:52;25.75;;;17.98;;
75689;SDS011;64303;53.118;9.044;2023-12-07T13:39:19;21.15;;;15.20;;
75689;SDS011;64303;53.118;9.044;2023-12-07T13:41:47;20.00;;;14.30;;
75689;SDS011;64303;53.118;9.044;2023-12-07T13:44:15;22.10;;;15.95;;
75689;SDS011;64303;53.118;9.044;2023-12-07T13:46:43;19.60;;;13.77;;
75689;SDS011;64303;53.118;9.044;2023-12-07T13:49:10;20.25;;;15.38;;
75689;SDS011;64303;53.118;9.044;2023-12-07T13:51:38;22.92;;;15.13;;
75689;SDS011;64303;53.118;9.044;2023-12-07T13:54:05;16.77;;;11.88;;
75689;SDS011;64303;53.118;9.044;2023-12-07T13:56:33;18.73;;;14.45;;
75689;SDS011;64303;53.118;9.044;2023-12-07T13:59:00;21.13;;;13.15;;
75689;SDS011;64303;53.118;9.044;2023-12-07T14:01:27;23.75;;;17.55;;
75689;SDS011;64303;53.118;9.044;2023-12-07T14:03:57;20.23;;;14.20;;
75689;SDS011;64303;53.118;9.044;2023-12-07T14:06:24;22.90;;;15.43;;
75689;SDS011;64303;53.118;9.044;2023-12-07T14:08:52;26.58;;;16.35;;
75689;SDS011;64303;53.118;9.044;2023-12-07T14:11:19;20.70;;;14.70;;
75689;SDS011;64303;53.118;9.044;2023-12-07T14:13:46;22.10;;;15.57;;
75689;SDS011;64303;53.118;9.044;2023-12-07T14:16:14;22.20;;;18.52;;
75689;SDS011;64303;53.118;9.044;2023-12-07T14:18:40;17.77;;;13.15;;
75689;SDS011;64303;53.118;9.044;2023-12-07T14:21:07;20.75;;;15.43;;
75689;SDS011;64303;53.118;9.044;2023-12-07T14:23:34;23.17;;;14.90;;
75689;SDS011;64303;53.118;9.044;2023-12-07T14:26:02;23.88;;;15.25;;
75689;SDS011;64303;53.118;9.044;2023-12-07T14:28:29;25.27;;;14.82;;
75689;SDS011;64303;53.118;9.044;2023-12-07T14:30:59;24.70;;;15.73;;
75689;SDS011;64303;53.118;9.044;2023-12-07T14:33:26;24.20;;;17.33;;